QFA55 PAOM-PANC
Flight info
| Callsign | QFA55 |
|---|---|
| Flight time | 1h 20m |
| Altitude | 35000 |
| Route | OME J111 WINOR KROTO5 |
| Aircraft | B738/M-SDE2E3FGHIRWXY/LB1 |
Departure
| Time | 2026-04-16 09:53 |
|---|---|
| Airport | Nome Airport (PAOM) |
Arrival
| Time | 2026-04-16 11:13 |
|---|---|
| Airport | Ted Stevens Anchorage International Airport (PANC) |
| Time | Latitude | Longitude | Altitude | Speed | Heading |
|---|---|---|---|---|---|
| 2026-04-16 09:40 | 64.50820 | -165.44384 | 46 ft | 0 kts | 89° |
| 2026-04-16 09:49 | 64.50820 | -165.44367 | 46 ft | 4 kts | 89° |
| 2026-04-16 09:49 | 64.50822 | -165.44245 | 46 ft | 10 kts | 83° |
| 2026-04-16 09:50 | 64.50855 | -165.44094 | 46 ft | 11 kts | 55° |
| 2026-04-16 09:50 | 64.50891 | -165.44037 | 46 ft | 0 kts | 17° |
| 2026-04-16 09:50 | 64.50932 | -165.44008 | 46 ft | 13 kts | 17° |
| 2026-04-16 09:50 | 64.50983 | -165.43845 | 46 ft | 16 kts | 108° |
| 2026-04-16 09:51 | 64.50946 | -165.43590 | 46 ft | 18 kts | 112° |
| 2026-04-16 09:51 | 64.50900 | -165.43316 | 46 ft | 11 kts | 90° |
| 2026-04-16 09:51 | 64.50881 | -165.43271 | 46 ft | 4 kts | 241° |
| 2026-04-16 09:51 | 64.50893 | -165.43340 | 46 ft | 3 kts | 293° |
| 2026-04-16 09:52 | 64.50896 | -165.43355 | 46 ft | 2 kts | 293° |
| 2026-04-16 09:52 | 64.50937 | -165.43610 | 47 ft | 39 kts | 290° |
| 2026-04-16 09:52 | 64.51126 | -165.44815 | 47 ft | 117 kts | 289° |
| 2026-04-16 09:52 | 64.51470 | -165.47061 | 245 ft | 158 kts | 290° |
| 2026-04-16 09:53 | 64.51800 | -165.49451 | 1018 ft | 159 kts | 289° |
| 2026-04-16 09:53 | 64.52172 | -165.52117 | 1419 ft | 192 kts | 289° |
| 2026-04-16 09:53 | 64.52606 | -165.55198 | 2120 ft | 204 kts | 289° |
| 2026-04-16 09:53 | 64.52928 | -165.58379 | 3097 ft | 201 kts | 275° |
| 2026-04-16 09:54 | 64.52673 | -165.61595 | 3824 ft | 211 kts | 245° |
| 2026-04-16 09:54 | 64.51773 | -165.64432 | 4302 ft | 229 kts | 221° |
| 2026-04-16 09:54 | 64.50368 | -165.66387 | 4774 ft | 243 kts | 197° |
| 2026-04-16 09:54 | 64.48656 | -165.66788 | 5312 ft | 255 kts | 170° |
| 2026-04-16 09:55 | 64.47006 | -165.65366 | 6149 ft | 255 kts | 146° |
| 2026-04-16 09:55 | 64.45832 | -165.62319 | 6916 ft | 258 kts | 114° |
| 2026-04-16 09:55 | 64.45562 | -165.58225 | 7695 ft | 263 kts | 84° |
| 2026-04-16 09:55 | 64.45863 | -165.54012 | 8461 ft | 268 kts | 79° |
| 2026-04-16 09:56 | 64.46279 | -165.49773 | 9228 ft | 272 kts | 78° |
| 2026-04-16 09:56 | 64.46715 | -165.45479 | 9959 ft | 276 kts | 78° |
| 2026-04-16 09:56 | 64.47137 | -165.41010 | 10405 ft | 292 kts | 79° |
| 2026-04-16 09:56 | 64.47556 | -165.36262 | 10758 ft | 309 kts | 80° |
| 2026-04-16 09:57 | 64.47989 | -165.31246 | 11144 ft | 324 kts | 80° |
| 2026-04-16 09:57 | 64.48243 | -165.26011 | 11726 ft | 330 kts | 91° |
| 2026-04-16 09:57 | 64.47983 | -165.20694 | 12384 ft | 334 kts | 105° |
| 2026-04-16 09:57 | 64.47422 | -165.15450 | 13119 ft | 337 kts | 106° |
| 2026-04-16 09:58 | 64.46828 | -165.10172 | 13859 ft | 340 kts | 106° |
| 2026-04-16 09:58 | 64.46214 | -165.04849 | 14577 ft | 344 kts | 107° |
| 2026-04-16 09:58 | 64.45595 | -164.99477 | 15287 ft | 347 kts | 106° |
| 2026-04-16 09:58 | 64.44975 | -164.94039 | 16000 ft | 351 kts | 106° |
| 2026-04-16 09:59 | 64.44340 | -164.88461 | 16702 ft | 355 kts | 106° |
| 2026-04-16 09:59 | 64.43706 | -164.82907 | 17391 ft | 359 kts | 106° |
| 2026-04-16 09:59 | 64.43060 | -164.77289 | 18075 ft | 363 kts | 106° |
| 2026-04-16 09:59 | 64.42403 | -164.71614 | 18750 ft | 367 kts | 107° |
| 2026-04-16 10:00 | 64.41737 | -164.65883 | 19425 ft | 370 kts | 106° |
| 2026-04-16 10:00 | 64.41063 | -164.60102 | 20078 ft | 374 kts | 106° |
| 2026-04-16 10:00 | 64.40382 | -164.54279 | 20719 ft | 377 kts | 106° |
| 2026-04-16 10:01 | 64.38993 | -164.42463 | 21945 ft | 384 kts | 106° |
| 2026-04-16 10:01 | 64.38285 | -164.36486 | 22532 ft | 387 kts | 106° |
| 2026-04-16 10:01 | 64.37570 | -164.30461 | 23100 ft | 390 kts | 106° |
| 2026-04-16 10:01 | 64.36846 | -164.24392 | 23656 ft | 393 kts | 106° |
| 2026-04-16 10:02 | 64.36112 | -164.18284 | 24191 ft | 396 kts | 107° |
| 2026-04-16 10:02 | 64.35370 | -164.12129 | 24687 ft | 400 kts | 106° |
| 2026-04-16 10:02 | 64.34619 | -164.05906 | 25159 ft | 404 kts | 107° |
| 2026-04-16 10:02 | 64.33862 | -163.99639 | 25610 ft | 408 kts | 107° |
| 2026-04-16 10:03 | 64.33093 | -163.93308 | 26036 ft | 412 kts | 107° |
| 2026-04-16 10:03 | 64.32312 | -163.86915 | 26455 ft | 416 kts | 107° |
| 2026-04-16 10:03 | 64.31519 | -163.80467 | 26863 ft | 420 kts | 108° |
| 2026-04-16 10:03 | 64.30717 | -163.73963 | 27255 ft | 423 kts | 108° |
| 2026-04-16 10:04 | 64.29907 | -163.67420 | 27635 ft | 427 kts | 108° |
| 2026-04-16 10:04 | 64.29087 | -163.60823 | 28001 ft | 430 kts | 108° |
| 2026-04-16 10:04 | 64.28258 | -163.54179 | 28352 ft | 433 kts | 108° |
| 2026-04-16 10:04 | 64.27419 | -163.47487 | 28690 ft | 437 kts | 108° |
| 2026-04-16 10:05 | 64.26570 | -163.40747 | 29018 ft | 440 kts | 108° |
| 2026-04-16 10:05 | 64.25715 | -163.33982 | 29334 ft | 443 kts | 108° |
| 2026-04-16 10:05 | 64.24848 | -163.27151 | 29638 ft | 446 kts | 108° |
| 2026-04-16 10:05 | 64.23970 | -163.20269 | 29778 ft | 453 kts | 109° |
| 2026-04-16 10:06 | 64.23073 | -163.13274 | 29904 ft | 459 kts | 109° |
| 2026-04-16 10:06 | 64.22166 | -163.06221 | 30132 ft | 461 kts | 109° |
| 2026-04-16 10:06 | 64.21253 | -162.99150 | 30394 ft | 463 kts | 109° |
| 2026-04-16 10:06 | 64.20333 | -162.92055 | 30678 ft | 464 kts | 109° |
| 2026-04-16 10:07 | 64.19409 | -162.84963 | 30957 ft | 464 kts | 109° |
| 2026-04-16 10:07 | 64.18479 | -162.77866 | 31247 ft | 465 kts | 109° |
| 2026-04-16 10:07 | 64.17533 | -162.70669 | 31525 ft | 465 kts | 109° |
| 2026-04-16 10:07 | 64.16607 | -162.63664 | 31790 ft | 465 kts | 109° |
| 2026-04-16 10:08 | 64.15653 | -162.56468 | 32052 ft | 466 kts | 109° |
| 2026-04-16 10:08 | 64.14708 | -162.49377 | 32318 ft | 466 kts | 109° |
| 2026-04-16 10:08 | 64.13758 | -162.42278 | 32572 ft | 466 kts | 109° |
| 2026-04-16 10:08 | 64.12805 | -162.35182 | 32812 ft | 467 kts | 109° |
| 2026-04-16 10:09 | 64.11846 | -162.28085 | 33058 ft | 467 kts | 109° |
| 2026-04-16 10:09 | 64.10885 | -162.20989 | 33285 ft | 467 kts | 110° |
| 2026-04-16 10:09 | 64.09919 | -162.13899 | 33520 ft | 467 kts | 110° |
| 2026-04-16 10:09 | 64.08948 | -162.06797 | 33738 ft | 468 kts | 110° |
| 2026-04-16 10:10 | 64.07975 | -161.99711 | 33961 ft | 468 kts | 110° |
| 2026-04-16 10:10 | 64.06998 | -161.92622 | 34171 ft | 468 kts | 110° |
| 2026-04-16 10:10 | 64.06017 | -161.85535 | 34386 ft | 468 kts | 110° |
| 2026-04-16 10:10 | 64.05031 | -161.78449 | 34599 ft | 468 kts | 110° |
| 2026-04-16 10:11 | 64.04043 | -161.71371 | 34799 ft | 468 kts | 110° |
| 2026-04-16 10:11 | 64.03051 | -161.64294 | 34880 ft | 470 kts | 110° |
| 2026-04-16 10:11 | 64.01039 | -161.50040 | 34892 ft | 473 kts | 110° |
| 2026-04-16 10:12 | 63.99008 | -161.35758 | 34892 ft | 473 kts | 110° |
| 2026-04-16 10:12 | 63.96966 | -161.21529 | 34891 ft | 472 kts | 111° |
| 2026-04-16 10:13 | 63.94925 | -161.07418 | 34888 ft | 468 kts | 111° |
| 2026-04-16 10:13 | 63.92880 | -160.93398 | 34887 ft | 466 kts | 111° |
| 2026-04-16 10:14 | 63.90826 | -160.79441 | 34884 ft | 466 kts | 111° |
| 2026-04-16 10:14 | 63.88748 | -160.65504 | 34885 ft | 466 kts | 112° |
| 2026-04-16 10:15 | 63.86489 | -160.51632 | 34886 ft | 466 kts | 114° |
| 2026-04-16 10:15 | 63.84179 | -160.37902 | 34886 ft | 466 kts | 113° |
| 2026-04-16 10:16 | 63.81927 | -160.24126 | 34886 ft | 466 kts | 113° |
| 2026-04-16 10:16 | 63.79640 | -160.10384 | 34886 ft | 467 kts | 114° |
| 2026-04-16 10:17 | 63.77326 | -159.96677 | 34886 ft | 467 kts | 114° |
| 2026-04-16 10:17 | 63.75404 | -159.85289 | 34886 ft | 467 kts | 114° |
| 2026-04-16 10:18 | 63.73077 | -159.71594 | 34887 ft | 467 kts | 114° |
| 2026-04-16 10:18 | 63.70733 | -159.57939 | 34887 ft | 467 kts | 114° |
| 2026-04-16 10:19 | 63.68377 | -159.44291 | 34889 ft | 467 kts | 114° |
| 2026-04-16 10:19 | 63.65993 | -159.30577 | 34889 ft | 467 kts | 114° |
| 2026-04-16 10:20 | 63.63608 | -159.16963 | 34890 ft | 468 kts | 115° |
| 2026-04-16 10:20 | 63.61209 | -159.03360 | 34891 ft | 468 kts | 115° |
| 2026-04-16 10:21 | 63.58793 | -158.89758 | 34891 ft | 469 kts | 115° |
| 2026-04-16 10:21 | 63.56361 | -158.76162 | 34892 ft | 469 kts | 115° |
| 2026-04-16 10:22 | 63.53917 | -158.62592 | 34898 ft | 469 kts | 115° |
| 2026-04-16 10:22 | 63.51460 | -158.49046 | 34906 ft | 469 kts | 115° |
| 2026-04-16 10:23 | 63.48986 | -158.35499 | 34907 ft | 470 kts | 115° |
| 2026-04-16 10:23 | 63.46495 | -158.21956 | 34909 ft | 470 kts | 116° |
| 2026-04-16 10:24 | 63.43996 | -158.08460 | 34909 ft | 470 kts | 116° |
| 2026-04-16 10:24 | 63.41485 | -157.94991 | 34910 ft | 470 kts | 116° |
| 2026-04-16 10:25 | 63.38959 | -157.81530 | 34910 ft | 470 kts | 116° |
| 2026-04-16 10:25 | 63.36416 | -157.68074 | 34911 ft | 471 kts | 116° |
| 2026-04-16 10:26 | 63.33860 | -157.54638 | 34911 ft | 471 kts | 116° |
| 2026-04-16 10:26 | 63.31291 | -157.41224 | 34909 ft | 471 kts | 117° |
| 2026-04-16 10:27 | 63.28708 | -157.27827 | 34909 ft | 471 kts | 117° |
| 2026-04-16 10:27 | 63.26110 | -157.14447 | 34909 ft | 472 kts | 117° |
| 2026-04-16 10:28 | 63.23499 | -157.01083 | 34914 ft | 472 kts | 117° |
| 2026-04-16 10:28 | 63.20872 | -156.87723 | 34915 ft | 473 kts | 117° |
| 2026-04-16 10:29 | 63.18231 | -156.74385 | 34915 ft | 473 kts | 117° |
| 2026-04-16 10:29 | 63.15572 | -156.61042 | 34916 ft | 474 kts | 117° |
| 2026-04-16 10:30 | 63.12903 | -156.47735 | 34915 ft | 473 kts | 118° |
| 2026-04-16 10:30 | 63.10202 | -156.34357 | 34914 ft | 474 kts | 118° |
| 2026-04-16 10:31 | 63.07506 | -156.21091 | 34914 ft | 474 kts | 118° |
| 2026-04-16 10:31 | 63.04797 | -156.07844 | 34914 ft | 474 kts | 118° |
| 2026-04-16 10:32 | 63.02073 | -155.94610 | 34913 ft | 474 kts | 118° |
| 2026-04-16 10:32 | 62.99331 | -155.81376 | 34914 ft | 476 kts | 119° |
| 2026-04-16 10:33 | 62.96568 | -155.68138 | 34913 ft | 477 kts | 119° |
| 2026-04-16 10:33 | 62.93483 | -155.55332 | 34919 ft | 472 kts | 126° |
| 2026-04-16 10:34 | 62.90065 | -155.43028 | 34917 ft | 472 kts | 126° |
| 2026-04-16 10:34 | 62.86607 | -155.30791 | 34917 ft | 472 kts | 127° |
| 2026-04-16 10:35 | 62.83153 | -155.18554 | 34919 ft | 473 kts | 127° |
| 2026-04-16 10:35 | 62.79682 | -155.06316 | 34921 ft | 473 kts | 127° |
| 2026-04-16 10:36 | 62.76197 | -154.94123 | 34922 ft | 473 kts | 127° |
| 2026-04-16 10:36 | 62.72701 | -154.81947 | 34924 ft | 474 kts | 127° |
| 2026-04-16 10:37 | 62.69193 | -154.69792 | 34926 ft | 474 kts | 127° |
| 2026-04-16 10:37 | 62.65670 | -154.57653 | 34926 ft | 474 kts | 127° |
| 2026-04-16 10:38 | 62.62135 | -154.45538 | 34927 ft | 475 kts | 128° |
| 2026-04-16 10:38 | 62.58584 | -154.33434 | 34926 ft | 475 kts | 128° |
| 2026-04-16 10:39 | 62.55023 | -154.21359 | 34930 ft | 475 kts | 128° |
| 2026-04-16 10:39 | 62.51449 | -154.09313 | 34931 ft | 475 kts | 128° |
| 2026-04-16 10:40 | 62.47863 | -153.97279 | 34931 ft | 476 kts | 128° |
| 2026-04-16 10:40 | 62.44269 | -153.85272 | 34931 ft | 476 kts | 129° |
| 2026-04-16 10:41 | 62.40651 | -153.73267 | 34931 ft | 477 kts | 129° |
| 2026-04-16 10:41 | 62.37005 | -153.61227 | 34932 ft | 477 kts | 129° |
| 2026-04-16 10:42 | 62.33373 | -153.49294 | 34932 ft | 477 kts | 129° |
| 2026-04-16 10:42 | 62.29726 | -153.37378 | 34933 ft | 477 kts | 129° |
| 2026-04-16 10:43 | 62.26067 | -153.25483 | 34558 ft | 477 kts | 129° |
| 2026-04-16 10:43 | 62.24246 | -153.19579 | 34010 ft | 472 kts | 129° |
| 2026-04-16 10:43 | 62.22443 | -153.13745 | 33484 ft | 467 kts | 130° |
| 2026-04-16 10:44 | 62.20655 | -153.07981 | 32969 ft | 462 kts | 130° |
| 2026-04-16 10:44 | 62.18876 | -153.02272 | 32461 ft | 458 kts | 130° |
| 2026-04-16 10:44 | 62.17114 | -152.96636 | 31957 ft | 454 kts | 131° |
| 2026-04-16 10:44 | 62.15384 | -152.91005 | 31457 ft | 453 kts | 127° |
| 2026-04-16 10:45 | 62.14008 | -152.84913 | 30983 ft | 457 kts | 118° |
| 2026-04-16 10:45 | 62.12817 | -152.78625 | 30456 ft | 455 kts | 118° |
| 2026-04-16 10:45 | 62.11655 | -152.72355 | 29950 ft | 453 kts | 118° |
| 2026-04-16 10:45 | 62.10514 | -152.66113 | 29451 ft | 450 kts | 117° |
| 2026-04-16 10:46 | 62.09375 | -152.59907 | 28955 ft | 447 kts | 118° |
| 2026-04-16 10:46 | 62.08230 | -152.53762 | 28463 ft | 444 kts | 118° |
| 2026-04-16 10:46 | 62.07083 | -152.47668 | 27973 ft | 441 kts | 118° |
| 2026-04-16 10:46 | 62.05941 | -152.41624 | 27489 ft | 438 kts | 118° |
| 2026-04-16 10:47 | 62.04807 | -152.35609 | 27006 ft | 435 kts | 118° |
| 2026-04-16 10:47 | 62.03682 | -152.29645 | 26527 ft | 432 kts | 118° |
| 2026-04-16 10:47 | 62.02564 | -152.23733 | 26055 ft | 429 kts | 118° |
| 2026-04-16 10:47 | 62.01450 | -152.17866 | 25605 ft | 425 kts | 118° |
| 2026-04-16 10:48 | 62.00344 | -152.12067 | 25150 ft | 421 kts | 118° |
| 2026-04-16 10:48 | 61.99243 | -152.06317 | 24690 ft | 418 kts | 118° |
| 2026-04-16 10:48 | 61.98150 | -152.00616 | 24232 ft | 414 kts | 118° |
| 2026-04-16 10:48 | 61.97065 | -151.94974 | 23783 ft | 410 kts | 118° |
| 2026-04-16 10:49 | 61.95989 | -151.89390 | 23337 ft | 406 kts | 118° |
| 2026-04-16 10:49 | 61.94918 | -151.83854 | 22891 ft | 403 kts | 118° |
| 2026-04-16 10:49 | 61.93857 | -151.78381 | 22448 ft | 399 kts | 118° |
| 2026-04-16 10:49 | 61.92801 | -151.72953 | 22009 ft | 395 kts | 118° |
| 2026-04-16 10:50 | 61.91753 | -151.67578 | 21574 ft | 392 kts | 118° |
| 2026-04-16 10:50 | 61.90715 | -151.62267 | 21144 ft | 388 kts | 118° |
| 2026-04-16 10:50 | 61.89686 | -151.57015 | 20718 ft | 384 kts | 118° |
| 2026-04-16 10:50 | 61.88664 | -151.51818 | 20296 ft | 380 kts | 118° |
| 2026-04-16 10:51 | 61.87653 | -151.46687 | 19879 ft | 375 kts | 118° |
| 2026-04-16 10:51 | 61.86975 | -151.43249 | 19600 ft | 372 kts | 118° |
| 2026-04-16 10:51 | 61.85979 | -151.38216 | 19190 ft | 368 kts | 118° |
| 2026-04-16 10:51 | 61.84995 | -151.33255 | 18786 ft | 363 kts | 118° |
| 2026-04-16 10:52 | 61.84022 | -151.28359 | 18387 ft | 358 kts | 118° |
| 2026-04-16 10:52 | 61.83061 | -151.23538 | 17994 ft | 353 kts | 118° |
| 2026-04-16 10:52 | 61.82111 | -151.18782 | 17607 ft | 348 kts | 118° |
| 2026-04-16 10:52 | 61.81175 | -151.14109 | 17221 ft | 343 kts | 118° |
| 2026-04-16 10:53 | 61.80248 | -151.09503 | 16843 ft | 338 kts | 118° |
| 2026-04-16 10:53 | 61.79321 | -151.04915 | 16469 ft | 341 kts | 118° |
| 2026-04-16 10:53 | 61.78387 | -151.00292 | 16089 ft | 342 kts | 117° |
| 2026-04-16 10:53 | 61.77592 | -150.95542 | 15723 ft | 345 kts | 107° |
| 2026-04-16 10:54 | 61.77016 | -150.90670 | 15330 ft | 339 kts | 108° |
| 2026-04-16 10:54 | 61.76460 | -150.85880 | 14950 ft | 333 kts | 107° |
| 2026-04-16 10:54 | 61.75918 | -150.81181 | 14576 ft | 326 kts | 107° |
| 2026-04-16 10:54 | 61.75383 | -150.76571 | 14210 ft | 320 kts | 108° |
| 2026-04-16 10:55 | 61.74844 | -150.71992 | 13852 ft | 324 kts | 108° |
| 2026-04-16 10:55 | 61.74296 | -150.67367 | 13484 ft | 325 kts | 108° |
| 2026-04-16 10:55 | 61.73749 | -150.62744 | 13125 ft | 322 kts | 108° |
| 2026-04-16 10:55 | 61.73217 | -150.58224 | 12766 ft | 314 kts | 108° |
| 2026-04-16 10:56 | 61.72695 | -150.53804 | 12417 ft | 307 kts | 108° |
| 2026-04-16 10:56 | 61.72177 | -150.49474 | 12078 ft | 305 kts | 108° |
| 2026-04-16 10:56 | 61.71640 | -150.45030 | 11726 ft | 310 kts | 108° |
| 2026-04-16 10:56 | 61.71113 | -150.40640 | 11377 ft | 305 kts | 108° |
| 2026-04-16 10:57 | 61.70531 | -150.36413 | 11037 ft | 294 kts | 118° |
| 2026-04-16 10:57 | 61.69459 | -150.32949 | 10848 ft | 275 kts | 139° |
| 2026-04-16 10:57 | 61.67969 | -150.30578 | 10659 ft | 267 kts | 158° |
| 2026-04-16 10:57 | 61.66214 | -150.29481 | 10412 ft | 262 kts | 177° |
| 2026-04-16 10:58 | 61.64399 | -150.29205 | 10112 ft | 259 kts | 179° |
| 2026-04-16 10:58 | 61.62625 | -150.29014 | 9828 ft | 253 kts | 179° |
| 2026-04-16 10:58 | 61.60874 | -150.28840 | 9563 ft | 251 kts | 179° |
| 2026-04-16 10:58 | 61.59133 | -150.28653 | 9305 ft | 249 kts | 178° |
| 2026-04-16 10:59 | 61.57405 | -150.28454 | 9040 ft | 249 kts | 178° |
| 2026-04-16 10:59 | 61.55686 | -150.28251 | 8785 ft | 246 kts | 178° |
| 2026-04-16 10:59 | 61.53978 | -150.28050 | 8543 ft | 246 kts | 178° |
| 2026-04-16 10:59 | 61.52267 | -150.27851 | 8281 ft | 246 kts | 178° |
| 2026-04-16 11:00 | 61.50558 | -150.27653 | 8035 ft | 246 kts | 178° |
| 2026-04-16 11:00 | 61.48846 | -150.27455 | 7773 ft | 246 kts | 178° |
| 2026-04-16 11:00 | 61.47145 | -150.27259 | 7522 ft | 244 kts | 178° |
| 2026-04-16 11:00 | 61.45448 | -150.27060 | 7261 ft | 244 kts | 176° |
| 2026-04-16 11:01 | 61.43755 | -150.26857 | 7006 ft | 243 kts | 177° |
| 2026-04-16 11:01 | 61.42073 | -150.26666 | 6755 ft | 242 kts | 177° |
| 2026-04-16 11:01 | 61.40381 | -150.26476 | 6503 ft | 243 kts | 177° |
| 2026-04-16 11:01 | 61.38698 | -150.26286 | 6253 ft | 242 kts | 177° |
| 2026-04-16 11:02 | 61.37020 | -150.26094 | 6004 ft | 242 kts | 177° |
| 2026-04-16 11:02 | 61.35342 | -150.25902 | 5754 ft | 240 kts | 177° |
| 2026-04-16 11:02 | 61.33671 | -150.25709 | 5501 ft | 241 kts | 177° |
| 2026-04-16 11:02 | 61.32002 | -150.25518 | 5251 ft | 240 kts | 177° |
| 2026-04-16 11:03 | 61.30338 | -150.25713 | 5055 ft | 239 kts | 193° |
| 2026-04-16 11:03 | 61.28784 | -150.26875 | 5035 ft | 239 kts | 202° |
| 2026-04-16 11:03 | 61.25709 | -150.29684 | 5011 ft | 242 kts | 205° |
| 2026-04-16 11:04 | 61.24373 | -150.31848 | 5015 ft | 243 kts | 230° |
| 2026-04-16 11:04 | 61.23629 | -150.34987 | 4906 ft | 246 kts | 257° |
| 2026-04-16 11:04 | 61.23507 | -150.38539 | 4733 ft | 247 kts | 267° |
| 2026-04-16 11:04 | 61.23498 | -150.42039 | 4541 ft | 239 kts | 269° |
| 2026-04-16 11:05 | 61.23510 | -150.45489 | 4367 ft | 238 kts | 269° |
| 2026-04-16 11:05 | 61.23514 | -150.48832 | 4277 ft | 225 kts | 268° |
| 2026-04-16 11:05 | 61.23507 | -150.52004 | 4125 ft | 217 kts | 268° |
| 2026-04-16 11:05 | 61.23491 | -150.55139 | 4008 ft | 218 kts | 268° |
| 2026-04-16 11:06 | 61.23192 | -150.58136 | 3945 ft | 209 kts | 242° |
| 2026-04-16 11:06 | 61.22248 | -150.60331 | 3937 ft | 209 kts | 208° |
| 2026-04-16 11:06 | 61.20817 | -150.60979 | 3952 ft | 214 kts | 174° |
| 2026-04-16 11:06 | 61.19459 | -150.59832 | 3827 ft | 215 kts | 143° |
| 2026-04-16 11:07 | 61.18282 | -150.57870 | 3600 ft | 217 kts | 141° |
| 2026-04-16 11:07 | 61.17239 | -150.55766 | 3529 ft | 206 kts | 125° |
| 2026-04-16 11:07 | 61.16683 | -150.53051 | 3485 ft | 208 kts | 101° |
| 2026-04-16 11:07 | 61.16618 | -150.50032 | 3412 ft | 213 kts | 90° |
| 2026-04-16 11:08 | 61.16642 | -150.46956 | 3319 ft | 214 kts | 90° |
| 2026-04-16 11:08 | 61.16660 | -150.43884 | 3257 ft | 211 kts | 90° |
| 2026-04-16 11:08 | 61.16674 | -150.40863 | 3257 ft | 209 kts | 90° |
| 2026-04-16 11:08 | 61.16686 | -150.37837 | 3255 ft | 211 kts | 90° |
| 2026-04-16 11:09 | 61.16698 | -150.34803 | 3025 ft | 209 kts | 90° |
| 2026-04-16 11:09 | 61.16709 | -150.31838 | 2750 ft | 202 kts | 90° |
| 2026-04-16 11:09 | 61.16719 | -150.28980 | 2483 ft | 193 kts | 90° |
| 2026-04-16 11:09 | 61.16728 | -150.26327 | 2238 ft | 178 kts | 90° |
| 2026-04-16 11:10 | 61.16735 | -150.23791 | 2007 ft | 174 kts | 90° |
| 2026-04-16 11:10 | 61.16742 | -150.21314 | 1776 ft | 170 kts | 90° |
| 2026-04-16 11:10 | 61.16748 | -150.18887 | 1557 ft | 167 kts | 90° |
| 2026-04-16 11:10 | 61.16754 | -150.16474 | 1334 ft | 162 kts | 89° |
| 2026-04-16 11:11 | 61.16759 | -150.14221 | 1122 ft | 152 kts | 89° |
| 2026-04-16 11:11 | 61.16764 | -150.12074 | 932 ft | 146 kts | 89° |
| 2026-04-16 11:11 | 61.16768 | -150.10005 | 745 ft | 142 kts | 89° |
| 2026-04-16 11:11 | 61.16771 | -150.07965 | 562 ft | 142 kts | 90° |
| 2026-04-16 11:12 | 61.16774 | -150.05925 | 375 ft | 142 kts | 90° |
| 2026-04-16 11:12 | 61.16781 | -150.03911 | 178 ft | 137 kts | 89° |
| 2026-04-16 11:12 | 61.16785 | -150.02256 | 162 ft | 82 kts | 90° |
| 2026-04-16 11:12 | 61.16786 | -150.01280 | 161 ft | 59 kts | 88° |
| 2026-04-16 11:13 | 61.16788 | -150.00525 | 161 ft | 47 kts | 90° |
| 2026-04-16 11:13 | 61.16788 | -149.99924 | 161 ft | 35 kts | 84° |
| 2026-04-16 11:13 | 61.16859 | -149.99516 | 161 ft | 27 kts | 52° |
| 2026-04-16 11:13 | 61.16991 | -149.99280 | 161 ft | 25 kts | 37° |
| 2026-04-16 11:14 | 61.17119 | -149.99098 | 161 ft | 19 kts | 18° |
| 2026-04-16 11:14 | 61.17246 | -149.99137 | 161 ft | 18 kts | 343° |
| 2026-04-16 11:14 | 61.17347 | -149.99198 | 161 ft | 13 kts | 343° |
| 2026-04-16 11:14 | 61.17445 | -149.99271 | 161 ft | 18 kts | 340° |
| 2026-04-16 11:15 | 61.17563 | -149.99357 | 161 ft | 16 kts | 340° |
| 2026-04-16 11:15 | 61.17654 | -149.99428 | 161 ft | 12 kts | 345° |
| 2026-04-16 11:15 | 61.17720 | -149.99326 | 161 ft | 14 kts | 68° |
| 2026-04-16 11:15 | 61.17797 | -149.99267 | 161 ft | 11 kts | 344° |
| 2026-04-16 11:16 | 61.17832 | -149.99288 | 161 ft | 5 kts | 343° |
| 2026-04-16 11:16 | 61.17877 | -149.99267 | 161 ft | 9 kts | 35° |
| 2026-04-16 11:16 | 61.17901 | -149.99170 | 161 ft | 8 kts | 105° |
| 2026-04-16 11:16 | 61.17848 | -149.99102 | 161 ft | 8 kts | 161° |
| 2026-04-16 11:17 | 61.17826 | -149.99085 | 161 ft | 0 kts | 160° |
| 2026-04-16 11:18 | 61.19401 | -150.00245 | 162 ft | 0 kts | 75° |
| 2026-04-16 11:21 | 61.19196 | -150.00131 | 162 ft | 47 kts | 75° |
| 2026-04-16 11:21 | 61.18882 | -149.99957 | 161 ft | 47 kts | 75° |
| 2026-04-16 11:22 | 61.18727 | -149.99871 | 161 ft | 0 kts | 75° |
| 2026-04-16 11:22 | 61.17781 | -149.98747 | 161 ft | 0 kts | 340° |